RYR100J LIRP-LIBD
Flight info
| Callsign | RYR100J |
|---|---|
| Flight time | 0h 54m |
| Altitude | 35000 |
| Route | DOCME M729 ELB DCT IPKAM DCT AMSOR DCT EKTOL DCT DOGUS |
| Aircraft | B738/M-SDE3FGILRWY/SB1 |
Departure
| Time | 2026-05-04 18:23 |
|---|---|
| Airport | Pisa International Airport (LIRP) |
Arrival
| Time | 2026-05-04 19:18 |
|---|---|
| Airport | Bari Karol Wojtyła International Airport (LIBD) |
| Time | Latitude | Longitude | Altitude | Speed | Heading |
|---|---|---|---|---|---|
| 2026-05-04 18:07 | 43.69761 | 10.39913 | 14 ft | 0 kts | 9° |
| 2026-05-04 18:10 | 43.69753 | 10.39912 | 14 ft | 4 kts | 9° |
| 2026-05-04 18:10 | 43.69729 | 10.39906 | 14 ft | 2 kts | 9° |
| 2026-05-04 18:10 | 43.69707 | 10.39896 | 14 ft | 4 kts | 52° |
| 2026-05-04 18:11 | 43.69702 | 10.39865 | 14 ft | 4 kts | 98° |
| 2026-05-04 18:11 | 43.69704 | 10.39850 | 14 ft | 1 kts | 99° |
| 2026-05-04 18:11 | 43.69704 | 10.39849 | 14 ft | 0 kts | 99° |
| 2026-05-04 18:13 | 43.69703 | 10.39855 | 14 ft | 2 kts | 99° |
| 2026-05-04 18:13 | 43.69653 | 10.39941 | 14 ft | 8 kts | 179° |
| 2026-05-04 18:14 | 43.69588 | 10.39929 | 14 ft | 13 kts | 189° |
| 2026-05-04 18:14 | 43.69478 | 10.39905 | 15 ft | 18 kts | 189° |
| 2026-05-04 18:14 | 43.69358 | 10.39897 | 17 ft | 17 kts | 172° |
| 2026-05-04 18:15 | 43.69198 | 10.39929 | 23 ft | 0 kts | 171° |
| 2026-05-04 18:15 | 43.69164 | 10.39913 | 23 ft | 10 kts | 212° |
| 2026-05-04 18:15 | 43.69085 | 10.39830 | 20 ft | 19 kts | 217° |
| 2026-05-04 18:16 | 43.68961 | 10.39700 | 18 ft | 26 kts | 217° |
| 2026-05-04 18:16 | 43.68801 | 10.39535 | 17 ft | 30 kts | 217° |
| 2026-05-04 18:16 | 43.68639 | 10.39367 | 17 ft | 28 kts | 217° |
| 2026-05-04 18:17 | 43.68342 | 10.39061 | 15 ft | 25 kts | 216° |
| 2026-05-04 18:17 | 43.68190 | 10.38906 | 13 ft | 30 kts | 216° |
| 2026-05-04 18:17 | 43.67855 | 10.38560 | 13 ft | 28 kts | 217° |
| 2026-05-04 18:18 | 43.67701 | 10.38402 | 13 ft | 27 kts | 216° |
| 2026-05-04 18:18 | 43.67609 | 10.38360 | 15 ft | 12 kts | 141° |
| 2026-05-04 18:18 | 43.67597 | 10.38382 | 13 ft | 0 kts | 124° |
| 2026-05-04 18:20 | 43.67595 | 10.38386 | 13 ft | 2 kts | 124° |
| 2026-05-04 18:21 | 43.67579 | 10.38419 | 14 ft | 6 kts | 124° |
| 2026-05-04 18:21 | 43.67546 | 10.38486 | 15 ft | 9 kts | 124° |
| 2026-05-04 18:21 | 43.67545 | 10.38565 | 18 ft | 9 kts | 49° |
| 2026-05-04 18:21 | 43.67584 | 10.38605 | 18 ft | 0 kts | 37° |
| 2026-05-04 18:22 | 43.67641 | 10.38664 | 18 ft | 36 kts | 37° |
| 2026-05-04 18:22 | 43.68050 | 10.39093 | 15 ft | 110 kts | 37° |
| 2026-05-04 18:22 | 43.68824 | 10.39921 | 59 ft | 165 kts | 41° |
| 2026-05-04 18:23 | 43.69757 | 10.40974 | 590 ft | 182 kts | 41° |
| 2026-05-04 18:23 | 43.70797 | 10.42104 | 1305 ft | 196 kts | 40° |
| 2026-05-04 18:23 | 43.72055 | 10.43014 | 1980 ft | 209 kts | 20° |
| 2026-05-04 18:23 | 43.73495 | 10.43344 | 2677 ft | 215 kts | 1° |
| 2026-05-04 18:24 | 43.74992 | 10.43063 | 3315 ft | 218 kts | 342° |
| 2026-05-04 18:24 | 43.76354 | 10.42128 | 3883 ft | 221 kts | 322° |
| 2026-05-04 18:24 | 43.77417 | 10.40601 | 4492 ft | 222 kts | 302° |
| 2026-05-04 18:24 | 43.78048 | 10.38661 | 5113 ft | 222 kts | 282° |
| 2026-05-04 18:25 | 43.78294 | 10.36537 | 5651 ft | 229 kts | 272° |
| 2026-05-04 18:25 | 43.77956 | 10.34336 | 5849 ft | 245 kts | 233° |
| 2026-05-04 18:25 | 43.76623 | 10.32796 | 6120 ft | 263 kts | 197° |
| 2026-05-04 18:25 | 43.74804 | 10.32528 | 6799 ft | 266 kts | 176° |
| 2026-05-04 18:26 | 43.72954 | 10.32668 | 7657 ft | 268 kts | 175° |
| 2026-05-04 18:26 | 43.71088 | 10.32846 | 8446 ft | 270 kts | 175° |
| 2026-05-04 18:26 | 43.69203 | 10.33025 | 9228 ft | 273 kts | 176° |
| 2026-05-04 18:26 | 43.67299 | 10.33194 | 10019 ft | 276 kts | 176° |
| 2026-05-04 18:27 | 43.65354 | 10.33356 | 10522 ft | 288 kts | 177° |
| 2026-05-04 18:27 | 43.63270 | 10.33519 | 10732 ft | 309 kts | 177° |
| 2026-05-04 18:27 | 43.61080 | 10.33685 | 11213 ft | 321 kts | 177° |
| 2026-05-04 18:27 | 43.58917 | 10.34526 | 11857 ft | 330 kts | 151° |
| 2026-05-04 18:28 | 43.57191 | 10.36639 | 12594 ft | 338 kts | 130° |
| 2026-05-04 18:28 | 43.55770 | 10.39260 | 13260 ft | 346 kts | 128° |
| 2026-05-04 18:28 | 43.54366 | 10.41998 | 13916 ft | 353 kts | 127° |
| 2026-05-04 18:28 | 43.52955 | 10.44788 | 14535 ft | 358 kts | 127° |
| 2026-05-04 18:29 | 43.51540 | 10.47585 | 15274 ft | 360 kts | 127° |
| 2026-05-04 18:29 | 43.50095 | 10.50424 | 15996 ft | 364 kts | 128° |
| 2026-05-04 18:29 | 43.48625 | 10.53292 | 16680 ft | 369 kts | 128° |
| 2026-05-04 18:29 | 43.47135 | 10.56182 | 17354 ft | 373 kts | 128° |
| 2026-05-04 18:30 | 43.44088 | 10.62056 | 18678 ft | 382 kts | 128° |
| 2026-05-04 18:30 | 43.42531 | 10.65048 | 19293 ft | 385 kts | 128° |
| 2026-05-04 18:30 | 43.40964 | 10.68052 | 19911 ft | 388 kts | 128° |
| 2026-05-04 18:31 | 43.39383 | 10.71079 | 20520 ft | 391 kts | 128° |
| 2026-05-04 18:31 | 43.37790 | 10.74126 | 21111 ft | 394 kts | 128° |
| 2026-05-04 18:31 | 43.36186 | 10.77193 | 21697 ft | 398 kts | 128° |
| 2026-05-04 18:31 | 43.34561 | 10.80296 | 22270 ft | 401 kts | 128° |
| 2026-05-04 18:32 | 43.32927 | 10.83411 | 22831 ft | 404 kts | 128° |
| 2026-05-04 18:32 | 43.31282 | 10.86545 | 23373 ft | 407 kts | 128° |
| 2026-05-04 18:32 | 43.29614 | 10.89718 | 23872 ft | 411 kts | 128° |
| 2026-05-04 18:32 | 43.27935 | 10.92908 | 24295 ft | 414 kts | 128° |
| 2026-05-04 18:33 | 43.26241 | 10.96122 | 24693 ft | 419 kts | 128° |
| 2026-05-04 18:33 | 43.24524 | 10.99378 | 25076 ft | 424 kts | 128° |
| 2026-05-04 18:33 | 43.22778 | 11.02682 | 25463 ft | 428 kts | 128° |
| 2026-05-04 18:33 | 43.21022 | 11.06003 | 25855 ft | 432 kts | 129° |
| 2026-05-04 18:34 | 43.19251 | 11.09349 | 26234 ft | 436 kts | 129° |
| 2026-05-04 18:34 | 43.17459 | 11.12730 | 26586 ft | 441 kts | 129° |
| 2026-05-04 18:34 | 43.15649 | 11.16142 | 26945 ft | 445 kts | 129° |
| 2026-05-04 18:34 | 43.13819 | 11.19589 | 27296 ft | 449 kts | 129° |
| 2026-05-04 18:35 | 43.11972 | 11.23061 | 27652 ft | 453 kts | 129° |
| 2026-05-04 18:35 | 43.10107 | 11.26566 | 28005 ft | 457 kts | 129° |
| 2026-05-04 18:35 | 43.08225 | 11.30097 | 28339 ft | 461 kts | 129° |
| 2026-05-04 18:35 | 43.06325 | 11.33657 | 28669 ft | 465 kts | 130° |
| 2026-05-04 18:36 | 43.04412 | 11.37237 | 29004 ft | 469 kts | 130° |
| 2026-05-04 18:36 | 43.02479 | 11.40852 | 29345 ft | 473 kts | 130° |
| 2026-05-04 18:36 | 43.00531 | 11.44489 | 29645 ft | 476 kts | 130° |
| 2026-05-04 18:36 | 42.98560 | 11.48165 | 29968 ft | 480 kts | 130° |
| 2026-05-04 18:37 | 42.96584 | 11.51846 | 30259 ft | 484 kts | 130° |
| 2026-05-04 18:37 | 42.94610 | 11.55519 | 30525 ft | 487 kts | 130° |
| 2026-05-04 18:37 | 42.92581 | 11.59290 | 30870 ft | 488 kts | 130° |
| 2026-05-04 18:37 | 42.90597 | 11.62975 | 31300 ft | 486 kts | 130° |
| 2026-05-04 18:38 | 42.88603 | 11.66676 | 31735 ft | 483 kts | 130° |
| 2026-05-04 18:38 | 42.86611 | 11.70365 | 32072 ft | 484 kts | 130° |
| 2026-05-04 18:38 | 42.84607 | 11.74069 | 32333 ft | 486 kts | 130° |
| 2026-05-04 18:38 | 42.82599 | 11.77776 | 32719 ft | 485 kts | 130° |
| 2026-05-04 18:39 | 42.80600 | 11.81464 | 33163 ft | 483 kts | 130° |
| 2026-05-04 18:39 | 42.78613 | 11.85126 | 33548 ft | 482 kts | 130° |
| 2026-05-04 18:39 | 42.76610 | 11.88811 | 33851 ft | 483 kts | 130° |
| 2026-05-04 18:39 | 42.74607 | 11.92489 | 34166 ft | 484 kts | 130° |
| 2026-05-04 18:40 | 42.72608 | 11.96157 | 34523 ft | 481 kts | 130° |
| 2026-05-04 18:40 | 42.70620 | 11.99804 | 34900 ft | 479 kts | 130° |
| 2026-05-04 18:40 | 42.68639 | 12.03432 | 35149 ft | 479 kts | 130° |
| 2026-05-04 18:41 | 42.64635 | 12.10743 | 35130 ft | 484 kts | 130° |
| 2026-05-04 18:41 | 42.60638 | 12.18034 | 35113 ft | 477 kts | 130° |
| 2026-05-04 18:42 | 42.56676 | 12.25240 | 35136 ft | 476 kts | 130° |
| 2026-05-04 18:42 | 42.52702 | 12.32446 | 35143 ft | 478 kts | 130° |
| 2026-05-04 18:43 | 42.48712 | 12.39664 | 35138 ft | 480 kts | 130° |
| 2026-05-04 18:43 | 42.44705 | 12.46897 | 35140 ft | 481 kts | 130° |
| 2026-05-04 18:44 | 42.40674 | 12.54158 | 35148 ft | 481 kts | 130° |
| 2026-05-04 18:44 | 42.36650 | 12.61388 | 35149 ft | 482 kts | 130° |
| 2026-05-04 18:45 | 42.32613 | 12.68625 | 35156 ft | 482 kts | 130° |
| 2026-05-04 18:45 | 42.28573 | 12.75848 | 35144 ft | 482 kts | 130° |
| 2026-05-04 18:46 | 42.24537 | 12.83049 | 35150 ft | 480 kts | 130° |
| 2026-05-04 18:46 | 42.20503 | 12.90227 | 35145 ft | 480 kts | 130° |
| 2026-05-04 18:47 | 42.16461 | 12.97402 | 35151 ft | 480 kts | 130° |
| 2026-05-04 18:47 | 42.12436 | 13.04548 | 35160 ft | 479 kts | 128° |
| 2026-05-04 18:48 | 42.09068 | 13.12307 | 35151 ft | 481 kts | 119° |
| 2026-05-04 18:48 | 42.05980 | 13.20304 | 35133 ft | 482 kts | 118° |
| 2026-05-04 18:49 | 42.02897 | 13.28220 | 35160 ft | 481 kts | 119° |
| 2026-05-04 18:49 | 41.99751 | 13.36132 | 35148 ft | 480 kts | 119° |
| 2026-05-04 18:50 | 41.96573 | 13.44042 | 35156 ft | 481 kts | 119° |
| 2026-05-04 18:50 | 41.93377 | 13.51969 | 35138 ft | 483 kts | 119° |
| 2026-05-04 18:51 | 41.90171 | 13.59903 | 35147 ft | 484 kts | 119° |
| 2026-05-04 18:51 | 41.86954 | 13.67846 | 35146 ft | 485 kts | 119° |
| 2026-05-04 18:52 | 41.83725 | 13.75797 | 35147 ft | 485 kts | 119° |
| 2026-05-04 18:52 | 41.80497 | 13.83728 | 35140 ft | 485 kts | 119° |
| 2026-05-04 18:53 | 41.77806 | 13.90320 | 35130 ft | 485 kts | 119° |
| 2026-05-04 18:53 | 41.74562 | 13.98251 | 35138 ft | 485 kts | 119° |
| 2026-05-04 18:54 | 41.71311 | 14.06174 | 35138 ft | 485 kts | 119° |
| 2026-05-04 18:54 | 41.68056 | 14.14087 | 34970 ft | 487 kts | 119° |
| 2026-05-04 18:54 | 41.66414 | 14.18069 | 34475 ft | 489 kts | 119° |
| 2026-05-04 18:55 | 41.64774 | 14.22043 | 33896 ft | 489 kts | 119° |
| 2026-05-04 18:55 | 41.61488 | 14.29990 | 32924 ft | 485 kts | 119° |
| 2026-05-04 18:55 | 41.59859 | 14.33921 | 32481 ft | 482 kts | 119° |
| 2026-05-04 18:56 | 41.58241 | 14.37820 | 32065 ft | 478 kts | 119° |
| 2026-05-04 18:56 | 41.56634 | 14.41688 | 31640 ft | 475 kts | 119° |
| 2026-05-04 18:56 | 41.55034 | 14.45533 | 31219 ft | 472 kts | 119° |
| 2026-05-04 18:56 | 41.53443 | 14.49354 | 30817 ft | 469 kts | 119° |
| 2026-05-04 18:57 | 41.51863 | 14.53142 | 30402 ft | 467 kts | 119° |
| 2026-05-04 18:57 | 41.50286 | 14.56917 | 29965 ft | 464 kts | 119° |
| 2026-05-04 18:57 | 41.48717 | 14.60669 | 29500 ft | 461 kts | 119° |
| 2026-05-04 18:57 | 41.47163 | 14.64382 | 29049 ft | 457 kts | 119° |
| 2026-05-04 18:58 | 41.45620 | 14.68062 | 28641 ft | 453 kts | 119° |
| 2026-05-04 18:58 | 41.44084 | 14.71723 | 28208 ft | 449 kts | 119° |
| 2026-05-04 18:58 | 41.42563 | 14.75341 | 27783 ft | 446 kts | 119° |
| 2026-05-04 18:58 | 41.41053 | 14.78930 | 27371 ft | 442 kts | 119° |
| 2026-05-04 18:59 | 41.39554 | 14.82489 | 26958 ft | 439 kts | 119° |
| 2026-05-04 18:59 | 41.38069 | 14.86010 | 26551 ft | 435 kts | 119° |
| 2026-05-04 18:59 | 41.36589 | 14.89515 | 26157 ft | 432 kts | 119° |
| 2026-05-04 18:59 | 41.35122 | 14.92984 | 25746 ft | 428 kts | 120° |
| 2026-05-04 19:00 | 41.33669 | 14.96419 | 25355 ft | 425 kts | 120° |
| 2026-05-04 19:00 | 41.32225 | 14.99827 | 24969 ft | 421 kts | 120° |
| 2026-05-04 19:00 | 41.30790 | 15.03209 | 24569 ft | 418 kts | 120° |
| 2026-05-04 19:00 | 41.29366 | 15.06563 | 24176 ft | 415 kts | 120° |
| 2026-05-04 19:01 | 41.27952 | 15.09890 | 23789 ft | 411 kts | 120° |
| 2026-05-04 19:01 | 41.26550 | 15.13183 | 23347 ft | 408 kts | 120° |
| 2026-05-04 19:01 | 41.25157 | 15.16451 | 22913 ft | 404 kts | 120° |
| 2026-05-04 19:01 | 41.23779 | 15.19683 | 22534 ft | 400 kts | 120° |
| 2026-05-04 19:02 | 41.22414 | 15.22881 | 22116 ft | 396 kts | 120° |
| 2026-05-04 19:02 | 41.21063 | 15.26042 | 21744 ft | 391 kts | 120° |
| 2026-05-04 19:02 | 41.19742 | 15.29129 | 21367 ft | 388 kts | 120° |
| 2026-05-04 19:02 | 41.18412 | 15.32234 | 20978 ft | 385 kts | 120° |
| 2026-05-04 19:03 | 41.17092 | 15.35311 | 20609 ft | 382 kts | 120° |
| 2026-05-04 19:03 | 41.15783 | 15.38361 | 20232 ft | 379 kts | 120° |
| 2026-05-04 19:03 | 41.14484 | 15.41386 | 19867 ft | 376 kts | 120° |
| 2026-05-04 19:03 | 41.13192 | 15.44390 | 19498 ft | 374 kts | 120° |
| 2026-05-04 19:04 | 41.11907 | 15.47375 | 19134 ft | 371 kts | 120° |
| 2026-05-04 19:04 | 41.10630 | 15.50339 | 18767 ft | 369 kts | 120° |
| 2026-05-04 19:04 | 41.09360 | 15.53284 | 18409 ft | 367 kts | 120° |
| 2026-05-04 19:04 | 41.08094 | 15.56218 | 17990 ft | 365 kts | 120° |
| 2026-05-04 19:05 | 41.06837 | 15.59126 | 17599 ft | 363 kts | 120° |
| 2026-05-04 19:05 | 41.05590 | 15.62011 | 17254 ft | 359 kts | 120° |
| 2026-05-04 19:05 | 41.04352 | 15.64872 | 16878 ft | 356 kts | 120° |
| 2026-05-04 19:05 | 41.03125 | 15.67704 | 16551 ft | 353 kts | 120° |
| 2026-05-04 19:06 | 41.01900 | 15.70502 | 16190 ft | 350 kts | 122° |
| 2026-05-04 19:06 | 41.00539 | 15.73122 | 15991 ft | 342 kts | 127° |
| 2026-05-04 19:06 | 40.99269 | 15.75734 | 15590 ft | 336 kts | 111° |
| 2026-05-04 19:06 | 40.98857 | 15.78736 | 15075 ft | 331 kts | 89° |
| 2026-05-04 19:07 | 40.99041 | 15.81727 | 14757 ft | 320 kts | 82° |
| 2026-05-04 19:07 | 40.99335 | 15.84588 | 14516 ft | 309 kts | 82° |
| 2026-05-04 19:07 | 40.99639 | 15.87363 | 14183 ft | 302 kts | 81° |
| 2026-05-04 19:07 | 40.99937 | 15.90101 | 13732 ft | 299 kts | 82° |
| 2026-05-04 19:08 | 41.00225 | 15.92819 | 13228 ft | 297 kts | 82° |
| 2026-05-04 19:08 | 41.00506 | 15.95522 | 12753 ft | 295 kts | 82° |
| 2026-05-04 19:08 | 41.00780 | 15.98206 | 12286 ft | 293 kts | 82° |
| 2026-05-04 19:08 | 41.01048 | 16.00870 | 11808 ft | 291 kts | 82° |
| 2026-05-04 19:09 | 41.01315 | 16.03536 | 11262 ft | 293 kts | 82° |
| 2026-05-04 19:09 | 41.01580 | 16.06205 | 10740 ft | 293 kts | 82° |
| 2026-05-04 19:09 | 41.01845 | 16.08889 | 10215 ft | 294 kts | 82° |
| 2026-05-04 19:09 | 41.02108 | 16.11568 | 9674 ft | 293 kts | 82° |
| 2026-05-04 19:10 | 41.02371 | 16.14248 | 9103 ft | 293 kts | 82° |
| 2026-05-04 19:10 | 41.02632 | 16.16919 | 8553 ft | 293 kts | 83° |
| 2026-05-04 19:10 | 41.02892 | 16.19596 | 8002 ft | 292 kts | 83° |
| 2026-05-04 19:10 | 41.03151 | 16.22257 | 7456 ft | 292 kts | 83° |
| 2026-05-04 19:11 | 41.03409 | 16.24921 | 6927 ft | 291 kts | 83° |
| 2026-05-04 19:11 | 41.03665 | 16.27572 | 6397 ft | 290 kts | 83° |
| 2026-05-04 19:11 | 41.03917 | 16.30182 | 5841 ft | 289 kts | 83° |
| 2026-05-04 19:11 | 41.04156 | 16.32675 | 5322 ft | 287 kts | 83° |
| 2026-05-04 19:12 | 41.04416 | 16.35386 | 4855 ft | 283 kts | 83° |
| 2026-05-04 19:12 | 41.04894 | 16.40365 | 4193 ft | 266 kts | 83° |
| 2026-05-04 19:12 | 41.05123 | 16.42777 | 3912 ft | 262 kts | 83° |
| 2026-05-04 19:13 | 41.05351 | 16.45162 | 3665 ft | 260 kts | 82° |
| 2026-05-04 19:13 | 41.05781 | 16.47472 | 3419 ft | 258 kts | 71° |
| 2026-05-04 19:13 | 41.06415 | 16.49681 | 3171 ft | 256 kts | 69° |
| 2026-05-04 19:13 | 41.07049 | 16.51849 | 3048 ft | 248 kts | 70° |
| 2026-05-04 19:14 | 41.07641 | 16.53944 | 3038 ft | 235 kts | 70° |
| 2026-05-04 19:14 | 41.08187 | 16.55893 | 2989 ft | 219 kts | 71° |
| 2026-05-04 19:14 | 41.08705 | 16.57749 | 2752 ft | 211 kts | 71° |
| 2026-05-04 19:14 | 41.09209 | 16.59549 | 2485 ft | 205 kts | 71° |
| 2026-05-04 19:15 | 41.09702 | 16.61307 | 2205 ft | 202 kts | 71° |
| 2026-05-04 19:15 | 41.10186 | 16.63033 | 1962 ft | 198 kts | 71° |
| 2026-05-04 19:15 | 41.10655 | 16.64702 | 1686 ft | 188 kts | 71° |
| 2026-05-04 19:15 | 41.11097 | 16.66277 | 1467 ft | 174 kts | 71° |
| 2026-05-04 19:16 | 41.11499 | 16.67708 | 1222 ft | 160 kts | 71° |
| 2026-05-04 19:16 | 41.11879 | 16.69062 | 1018 ft | 153 kts | 71° |
| 2026-05-04 19:16 | 41.12246 | 16.70365 | 820 ft | 150 kts | 71° |
| 2026-05-04 19:16 | 41.12612 | 16.71665 | 628 ft | 150 kts | 71° |
| 2026-05-04 19:17 | 41.12972 | 16.72946 | 421 ft | 149 kts | 71° |
| 2026-05-04 19:17 | 41.13334 | 16.74231 | 240 ft | 148 kts | 71° |
| 2026-05-04 19:17 | 41.13682 | 16.75486 | 150 ft | 139 kts | 71° |
| 2026-05-04 19:17 | 41.13956 | 16.76433 | 148 ft | 70 kts | 70° |
| 2026-05-04 19:18 | 41.13980 | 16.76686 | 150 ft | 18 kts | 114° |
| 2026-05-04 19:18 | 41.13930 | 16.76806 | 156 ft | 11 kts | 148° |
| 2026-05-04 19:18 | 41.13874 | 16.76784 | 157 ft | 8 kts | 234° |
| 2026-05-04 19:18 | 41.13846 | 16.76702 | 157 ft | 13 kts | 247° |
| 2026-05-04 19:19 | 41.13806 | 16.76571 | 157 ft | 14 kts | 241° |
| 2026-05-04 19:19 | 41.13744 | 16.76563 | 157 ft | 6 kts | 165° |
| 2026-05-04 19:19 | 41.13732 | 16.76564 | 157 ft | 0 kts | 182° |
| 2026-05-04 19:19 | 41.13731 | 16.76564 | 157 ft | 0 kts | 182° |
| 2026-05-04 19:20 | 41.13729 | 16.76564 | 157 ft | 1 kts | 188° |
| 2026-05-04 19:20 | 41.13725 | 16.76562 | 157 ft | 0 kts | 193° |